Time;durP1;ratioP1;P1;durP2;ratioP2;P2;SDS_P1;SDS_P2;PMS_P1;PMS_P2;Temp;Humidity;BMP_temperature;BMP_pressure;BME280_temperature;BME280_humidity;BME280_pressure;Samples;Min_cycle;Max_cycle;Signal;HPM_P1;HPM_P2
2022/04/27 00:02:01;;;;;;;9.00;5.53;;;;;;;4.24;nan;101331.41;5007716;28;20046;-79
2022/04/27 00:04:28;;;;;;;8.10;5.13;;;;;;;4.18;nan;101340.03;5011082;28;20406;-77
2022/04/27 00:06:55;;;;;;;7.30;4.90;;;;;;;4.15;nan;101346.97;4974899;28;20046;-79
2022/04/27 00:09:22;;;;;;;7.13;5.77;;;;;;;4.07;nan;101339.00;4965479;28;20034;-79
2022/04/27 00:11:49;;;;;;;7.10;4.97;;;;;;;4.08;nan;101345.09;4955882;28;20487;-79
2022/04/27 00:14:16;;;;;;;10.60;5.50;;;;;;;4.19;nan;101343.53;5009822;28;20411;-78
2022/04/27 00:16:44;;;;;;;8.20;5.43;;;;;;;4.05;nan;101352.91;4980931;28;20511;-81
2022/04/27 00:19:11;;;;;;;8.70;6.60;;;;;;;4.03;nan;101349.34;4991478;28;20037;-80
2022/04/27 00:21:38;;;;;;;8.37;5.50;;;;;;;3.99;nan;101355.41;4993975;28;20040;-80
2022/04/27 00:24:05;;;;;;;8.00;5.40;;;;;;;3.83;nan;101355.13;4974444;28;20491;-80
2022/04/27 00:26:32;;;;;;;9.03;6.20;;;;;;;3.89;nan;101359.59;4991917;28;20493;-79
2022/04/27 00:28:59;;;;;;;9.73;6.17;;;;;;;3.73;nan;101358.44;4987632;28;20065;-80
2022/04/27 00:31:26;;;;;;;8.47;5.57;;;;;;;3.64;nan;101356.53;4992354;28;20041;-79
2022/04/27 00:33:53;;;;;;;10.83;6.23;;;;;;;3.55;nan;101352.84;4992199;28;20048;-78
2022/04/27 00:36:20;;;;;;;10.13;6.10;;;;;;;3.55;nan;101358.97;4978789;28;20045;-80
2022/04/27 00:41:35;;;;;;;9.53;6.33;;;;;;;3.45;nan;101353.50;4989652;28;20105;-78
2022/04/27 00:44:01;;;;;;;13.13;7.33;;;;;;;3.38;nan;101356.03;4987818;28;20034;-80
2022/04/27 00:46:28;;;;;;;9.10;6.10;;;;;;;3.41;nan;101357.81;4998625;28;20385;-78
2022/04/27 00:48:55;;;;;;;10.67;6.77;;;;;;;3.24;nan;101354.84;4978125;28;20043;-82
2022/04/27 00:51:24;;;;;;;9.13;6.07;;;;;;;3.19;nan;101359.09;4953140;28;20054;-78
2022/04/27 00:53:51;;;;;;;9.50;5.70;;;;;;;3.34;nan;101362.03;4967973;28;20031;-79
2022/04/27 00:56:21;;;;;;;9.13;5.37;;;;;;;3.17;nan;101365.13;4952218;28;20034;-79
2022/04/27 00:58:48;;;;;;;11.47;6.10;;;;;;;3.12;nan;101366.78;4969477;28;20049;-78
2022/04/27 01:01:18;;;;;;;10.30;6.23;;;;;;;3.05;nan;101368.38;4971210;28;20045;-82
2022/04/27 01:03:45;;;;;;;12.90;6.87;;;;;;;3.01;nan;101367.41;4952059;28;20051;-80
2022/04/27 01:06:13;;;;;;;8.90;6.07;;;;;;;3.02;nan;101369.19;4970108;28;20031;-81
2022/04/27 01:08:39;;;;;;;10.70;6.97;;;;;;;3.02;nan;101370.91;4952841;28;20046;-80
2022/04/27 01:11:07;;;;;;;12.03;6.93;;;;;;;3.05;nan;101373.59;4953494;28;20038;-80
2022/04/27 01:13:34;;;;;;;14.83;7.03;;;;;;;2.95;nan;101372.53;4983067;28;20052;-80
2022/04/27 01:16:02;;;;;;;11.63;7.17;;;;;;;2.93;nan;101368.09;4971221;28;20037;-78
2022/04/27 01:18:29;;;;;;;11.57;6.43;;;;;;;2.76;nan;101372.94;4968722;28;20053;-79
2022/04/27 01:20:56;;;;;;;10.93;7.13;;;;;;;2.77;nan;101386.03;4955908;28;20049;-81
2022/04/27 01:23:23;;;;;;;13.63;6.93;;;;;;;2.75;nan;101382.50;4966478;28;20721;-80
2022/04/27 01:25:55;;;;;;;10.77;7.03;;;;;;;2.71;nan;101382.41;4968249;28;20585;-79
2022/04/27 01:28:26;;;;;;;9.73;6.80;;;;;;;2.65;nan;101392.69;4950067;28;20407;-79
2022/04/27 01:30:58;;;;;;;9.40;6.37;;;;;;;2.51;nan;101392.34;4967662;28;20241;-82
2022/04/27 01:33:26;;;;;;;10.13;6.40;;;;;;;2.47;nan;101385.31;4954073;28;20042;-81
2022/04/27 01:35:54;;;;;;;10.53;6.30;;;;;;;2.38;nan;101386.00;4956714;28;20075;-81
2022/04/27 01:38:20;;;;;;;12.73;7.07;;;;;;;2.35;nan;101393.72;4969516;28;20038;-82
2022/04/27 01:40:49;;;;;;;9.90;6.37;;;;;;;2.25;nan;101392.59;4970391;28;20034;-81
2022/04/27 01:43:16;;;;;;;10.87;7.30;;;;;;;2.36;nan;101403.31;4969649;28;20112;-81
2022/04/27 01:45:43;;;;;;;12.13;6.47;;;;;;;2.26;nan;101399.59;4973464;28;20035;-80
2022/04/27 01:48:11;;;;;;;10.90;6.10;;;;;;;2.20;nan;101401.19;4953256;28;20030;-81
2022/04/27 01:50:38;;;;;;;11.33;6.87;;;;;;;2.14;nan;101396.69;4970929;28;20045;-81
2022/04/27 01:55:51;;;;;;;18.90;7.40;;;;;;;2.12;nan;101400.97;4965374;28;20039;-81
2022/04/27 01:58:18;;;;;;;17.83;8.13;;;;;;;2.06;nan;101397.31;4969168;28;20035;-81
2022/04/27 02:00:47;;;;;;;14.23;7.67;;;;;;;2.04;nan;101402.50;4955793;29;20507;-83
2022/04/27 02:03:15;;;;;;;11.67;6.70;;;;;;;2.10;nan;101400.06;4969752;28;20106;-82
2022/04/27 02:05:42;;;;;;;11.33;6.60;;;;;;;2.02;nan;101393.78;4983795;28;20049;-80
2022/04/27 02:08:09;;;;;;;11.13;6.80;;;;;;;2.00;nan;101397.16;4972808;28;20042;-82
2022/04/27 02:10:37;;;;;;;11.40;6.37;;;;;;;2.02;nan;101398.06;4973423;28;20031;-82
2022/04/27 02:13:05;;;;;;;9.67;6.83;;;;;;;1.94;nan;101395.28;4957155;28;20039;-84
2022/04/27 02:15:32;;;;;;;11.63;6.60;;;;;;;1.86;nan;101397.69;4973434;28;20061;-84
2022/04/27 02:18:00;;;;;;;12.50;6.50;;;;;;;1.84;nan;101399.34;4956737;28;20035;-83
2022/04/27 02:20:27;;;;;;;10.90;6.90;;;;;;;1.85;nan;101395.03;4956654;28;20057;-80
2022/04/27 02:22:55;;;;;;;13.17;7.23;;;;;;;1.85;nan;101398.53;4962728;28;20425;-81
2022/04/27 02:25:22;;;;;;;11.20;6.87;;;;;;;1.79;nan;101397.50;4968383;28;20041;-80
2022/04/27 02:27:49;;;;;;;10.90;6.63;;;;;;;1.74;nan;101405.16;4972542;28;20399;-80
2022/04/27 02:30:18;;;;;;;10.33;6.33;;;;;;;1.78;nan;101408.75;4951669;28;20073;-80
2022/04/27 02:32:46;;;;;;;12.27;7.03;;;;;;;1.71;nan;101401.59;4971678;28;20049;-80
2022/04/27 02:35:13;;;;;;;12.50;7.20;;;;;;;1.70;nan;101408.53;4956028;28;20038;-81
2022/04/27 02:37:40;;;;;;;12.77;7.70;;;;;;;1.65;nan;101416.22;4970264;28;20039;-81
2022/04/27 02:40:09;;;;;;;11.60;6.83;;;;;;;1.65;nan;101420.53;4951699;28;20599;-81
2022/04/27 02:42:36;;;;;;;14.90;7.33;;;;;;;1.57;nan;101420.31;4956480;28;20038;-81
2022/04/27 02:45:03;;;;;;;12.37;6.63;;;;;;;1.57;nan;101417.72;4963801;28;20399;-80
2022/04/27 02:47:31;;;;;;;14.43;8.00;;;;;;;1.47;nan;101415.69;4973212;28;20035;-81
2022/04/27 02:52:43;;;;;;;13.20;7.63;;;;;;;1.31;nan;101414.38;4964096;28;20045;-80
2022/04/27 02:55:10;;;;;;;9.33;6.67;;;;;;;1.21;nan;101416.69;4955895;28;20050;-80
2022/04/27 02:57:37;;;;;;;14.40;7.90;;;;;;;1.15;nan;101422.56;4955316;28;20050;-81
2022/04/27 03:00:05;;;;;;;12.63;7.30;;;;;;;1.10;nan;101419.84;4955629;28;20051;-80
2022/04/27 03:02:31;;;;;;;13.17;6.90;;;;;;;1.08;nan;101426.69;4956499;28;20043;-80
2022/04/27 03:05:00;;;;;;;14.27;8.57;;;;;;;1.04;nan;101427.47;4955299;28;20046;-79
2022/04/27 03:07:28;;;;;;;12.40;7.20;;;;;;;1.02;nan;101433.47;4969174;28;20388;-80
2022/04/27 03:09:55;;;;;;;14.47;8.67;;;;;;;1.03;nan;101433.50;4974529;28;20715;-79
2022/04/27 03:12:22;;;;;;;13.50;7.83;;;;;;;0.96;nan;101420.25;4954790;28;20042;-80
2022/04/27 03:14:49;;;;;;;19.43;8.00;;;;;;;0.96;nan;101421.13;4958804;28;20047;-80
2022/04/27 03:17:16;;;;;;;12.73;7.43;;;;;;;0.89;nan;101429.59;4955593;28;20365;-79
2022/04/27 03:19:43;;;;;;;14.67;7.47;;;;;;;0.80;nan;101426.69;4986999;28;20043;-79
2022/04/27 03:22:10;;;;;;;13.90;7.50;;;;;;;0.78;nan;101441.38;4974848;28;20043;-80
2022/04/27 03:24:37;;;;;;;12.20;7.90;;;;;;;0.75;nan;101438.66;4966175;28;20047;-80
2022/04/27 03:27:05;;;;;;;14.63;7.53;;;;;;;0.69;nan;101441.97;4959204;28;20407;-80
2022/04/27 03:29:32;;;;;;;11.30;7.27;;;;;;;0.64;nan;101445.25;4957453;28;20134;-81
2022/04/27 03:31:59;;;;;;;15.23;8.37;;;;;;;0.58;nan;101443.31;4957823;28;20039;-79
2022/04/27 03:34:26;;;;;;;14.13;8.13;;;;;;;0.56;nan;101450.19;4971474;28;20035;-80
2022/04/27 03:36:52;;;;;;;15.17;6.70;;;;;;;0.52;nan;101456.16;4958571;28;20411;-79
2022/04/27 03:39:19;;;;;;;13.43;7.73;;;;;;;0.48;nan;101449.94;4954396;28;20039;-79
2022/04/27 03:42:06;;;;;;;13.67;8.10;;;;;;;0.50;nan;101456.06;4958552;28;20043;-81
2022/04/27 03:44:33;;;;;;;16.03;8.67;;;;;;;0.49;nan;101453.44;4970978;28;20526;-80
2022/04/27 03:47:00;;;;;;;11.40;7.10;;;;;;;0.39;nan;101465.25;4958817;28;20047;-81
2022/04/27 03:49:27;;;;;;;16.23;7.70;;;;;;;0.39;nan;101462.63;4954210;28;20047;-79
2022/04/27 03:51:55;;;;;;;14.90;7.33;;;;;;;0.41;nan;101462.69;4972539;28;20030;-81
2022/04/27 03:54:22;;;;;;;12.80;7.90;;;;;;;0.35;nan;101467.69;4972218;28;20045;-82
2022/04/27 03:56:49;;;;;;;13.37;7.70;;;;;;;0.42;nan;101469.66;4983065;28;20051;-81
2022/04/27 03:59:16;;;;;;;13.27;7.17;;;;;;;0.43;nan;101474.03;4973805;28;20039;-81
2022/04/27 04:01:42;;;;;;;14.80;7.13;;;;;;;0.42;nan;101472.25;4939476;28;20039;-81
2022/04/27 04:04:09;;;;;;;9.37;6.60;;;;;;;0.39;nan;101480.84;4973002;28;20034;-79
2022/04/27 04:06:39;;;;;;;12.10;7.43;;;;;;;0.35;nan;101481.56;4968600;28;20039;-79
2022/04/27 04:09:06;;;;;;;10.50;6.37;;;;;;;0.38;nan;101486.00;4955006;28;20042;-81
2022/04/27 04:11:33;;;;;;;13.20;7.77;;;;;;;0.38;nan;101479.06;4974051;28;20050;-80
2022/04/27 04:14:00;;;;;;;13.50;7.40;;;;;;;0.40;nan;101493.00;4956652;28;20050;-80
2022/04/27 04:16:27;;;;;;;13.00;7.10;;;;;;;0.41;nan;101489.56;4975508;28;20047;-79
2022/04/27 04:18:54;;;;;;;12.20;7.10;;;;;;;0.35;nan;101496.28;4953594;28;20507;-79
2022/04/27 04:21:21;;;;;;;13.83;7.63;;;;;;;0.28;nan;101498.66;4964960;28;20039;-82
2022/04/27 04:23:48;;;;;;;12.17;8.00;;;;;;;0.30;nan;101508.22;4935858;28;20046;-80
2022/04/27 04:29:00;;;;;;;11.37;7.57;;;;;;;0.28;nan;101511.66;4958071;28;20042;-81
2022/04/27 04:31:28;;;;;;;15.23;7.80;;;;;;;0.27;nan;101509.03;4937877;28;20070;-83
2022/04/27 04:33:55;;;;;;;12.00;7.30;;;;;;;0.33;nan;101509.22;4963534;28;20399;-81
2022/04/27 04:36:22;;;;;;;13.03;7.13;;;;;;;0.35;nan;101507.56;4958057;28;20069;-82
2022/04/27 04:38:49;;;;;;;11.50;6.70;;;;;;;0.34;nan;101515.28;4940744;28;20514;-81
2022/04/27 04:41:15;;;;;;;11.23;7.60;;;;;;;0.47;nan;101517.50;4956650;28;20043;-82
2022/04/27 04:43:42;;;;;;;13.90;7.67;;;;;;;0.49;nan;101513.22;4972487;28;20049;-82
2022/04/27 04:46:09;;;;;;;11.90;6.70;;;;;;;0.52;nan;101510.75;4959968;28;20042;-80
2022/04/27 04:48:36;;;;;;;13.57;7.27;;;;;;;0.50;nan;101513.25;4953549;28;20049;-82
2022/04/27 04:51:03;;;;;;;11.70;7.00;;;;;;;0.54;nan;101524.69;4937898;28;20061;-83
2022/04/27 04:53:30;;;;;;;12.13;6.93;;;;;;;0.55;nan;101523.84;4962834;28;20049;-81
2022/04/27 04:55:57;;;;;;;19.13;7.73;;;;;;;0.62;nan;101527.53;4984911;28;20045;-81
2022/04/27 04:58:27;;;;;;;13.97;7.13;;;;;;;0.72;nan;101522.69;4947044;28;20038;-81
2022/04/27 05:00:55;;;;;;;13.30;8.13;;;;;;;0.77;nan;101534.13;4966198;28;20439;-81
2022/04/27 05:03:22;;;;;;;11.97;7.30;;;;;;;0.89;nan;101525.84;4953784;28;20043;-83
2022/04/27 05:05:49;;;;;;;13.80;7.17;;;;;;;0.92;nan;101533.72;4968853;28;20477;-81
2022/04/27 05:08:15;;;;;;;14.37;7.57;;;;;;;0.96;nan;101539.94;4971750;28;20061;-83
2022/04/27 05:10:43;;;;;;;12.80;8.57;;;;;;;1.00;nan;101540.06;4975170;28;20455;-83
2022/04/27 05:13:10;;;;;;;11.87;8.07;;;;;;;1.04;nan;101546.28;4973297;28;20411;-82
2022/04/27 05:15:37;;;;;;;10.93;7.47;;;;;;;1.14;nan;101545.72;4959658;28;20058;-80
2022/04/27 05:18:04;;;;;;;12.40;6.50;;;;;;;1.19;nan;101541.56;4958737;28;20484;-82
2022/04/27 05:20:31;;;;;;;11.77;7.13;;;;;;;1.24;nan;101549.50;4974449;28;20094;-81
2022/04/27 05:22:58;;;;;;;16.33;7.47;;;;;;;1.41;nan;101557.00;4966883;28;20476;-82
2022/04/27 05:25:25;;;;;;;11.53;7.10;;;;;;;1.75;nan;101554.53;4974043;28;20057;-81
2022/04/27 05:27:52;;;;;;;11.67;6.90;;;;;;;1.90;nan;101552.38;4959121;28;20069;-82
2022/04/27 05:33:04;;;;;;;10.70;6.83;;;;;;;2.02;nan;101563.19;4960456;28;20391;-81
2022/04/27 05:35:37;;;;;;;13.90;7.27;;;;;;;2.10;nan;101561.66;4966639;28;20038;-83
2022/04/27 05:38:05;;;;;;;11.17;6.63;;;;;;;2.19;nan;101566.25;4938330;28;20065;-81
2022/04/27 05:40:31;;;;;;;11.60;7.00;;;;;;;2.17;nan;101562.69;4935476;29;20045;-81
2022/04/27 05:42:59;;;;;;;13.00;7.77;;;;;;;2.22;nan;101567.22;4952495;29;20508;-82
2022/04/27 05:45:26;;;;;;;12.67;7.20;;;;;;;2.36;nan;101574.56;4951905;29;20045;-81
2022/04/27 05:47:53;;;;;;;12.20;7.87;;;;;;;2.47;nan;101574.00;4953856;28;20054;-83
2022/04/27 05:50:20;;;;;;;14.53;7.10;;;;;;;3.18;nan;101574.06;4969913;28;20035;-81
2022/04/27 05:52:49;;;;;;;9.97;6.07;;;;;;;4.20;nan;101572.81;4972192;28;20049;-82
2022/04/27 05:55:16;;;;;;;10.73;6.07;;;;;;;4.88;nan;101570.63;4954989;28;20050;-81
2022/04/27 05:57:43;;;;;;;11.23;6.43;;;;;;;4.83;nan;101568.78;4973209;28;20043;-82
2022/04/27 06:00:11;;;;;;;12.27;6.50;;;;;;;4.91;nan;101577.66;4954714;28;20650;-83
2022/04/27 06:02:38;;;;;;;8.67;5.60;;;;;;;4.71;nan;101583.44;4956304;28;20046;-85
2022/04/27 06:05:07;;;;;;;7.23;5.23;;;;;;;4.57;nan;101592.75;4955205;28;20057;-83
2022/04/27 06:07:35;;;;;;;9.57;6.13;;;;;;;4.61;nan;101591.94;4957859;28;20046;-80
2022/04/27 06:10:07;;;;;;;45.20;10.53;;;;;;;4.78;nan;101587.91;4972968;28;20039;-84
2022/04/27 06:12:37;;;;;;;16.77;7.50;;;;;;;5.02;nan;101587.44;4958014;28;20047;-82
2022/04/27 06:15:04;;;;;;;9.10;6.57;;;;;;;5.35;nan;101581.88;4942173;28;20046;-81
2022/04/27 06:17:31;;;;;;;36.90;9.50;;;;;;;5.70;nan;101584.13;4975650;28;20526;-82
2022/04/27 06:19:58;;;;;;;13.63;8.63;;;;;;;6.25;nan;101589.28;4968168;28;20035;-80
2022/04/27 06:22:25;;;;;;;11.57;7.40;;;;;;;7.24;nan;101585.03;4973575;28;20051;-80
2022/04/27 06:24:52;;;;;;;13.93;8.10;;;;;;;7.97;nan;101592.50;4972228;28;20043;-81
2022/04/27 06:27:19;;;;;;;13.87;9.13;;;;;;;8.87;nan;101595.47;4957982;28;20065;-84
2022/04/27 06:29:46;;;;;;;13.17;6.37;;;;;;;9.89;nan;101584.84;4973015;28;20064;-78
2022/04/27 06:32:13;;;;;;;9.90;6.83;;;;;;;10.99;nan;101592.22;4972639;28;20038;-84
2022/04/27 06:34:40;;;;;;;12.03;7.40;;;;;;;11.89;nan;101586.16;4971882;28;20516;-80
2022/04/27 06:37:07;;;;;;;9.43;6.55;;;;;;;12.49;nan;101596.00;4975026;28;20435;-79
2022/04/27 06:39:34;;;;;;;10.73;6.60;;;;;;;13.12;nan;101593.34;4972844;28;20045;-82
2022/04/27 06:42:01;;;;;;;10.52;7.03;;;;;;;13.37;nan;101600.03;5062683;23;20049;-78
2022/04/27 06:44:28;;;;;;;9.27;6.18;;;;;;;13.35;nan;101588.53;4954652;28;20406;-81
2022/04/27 06:46:54;;;;;;;8.55;6.18;;;;;;;13.42;nan;101590.19;4974703;28;20046;-78
2022/04/27 06:49:21;;;;;;;9.07;6.20;;;;;;;13.24;nan;101598.47;4981144;28;20064;-80
2022/04/27 06:51:48;;;;;;;8.85;5.88;;;;;;;12.82;nan;101594.66;4993637;28;20043;-80
2022/04/27 06:54:15;;;;;;;8.80;6.30;;;;;;;12.60;nan;101600.25;4933229;28;20050;-79
2022/04/27 06:56:42;;;;;;;8.80;5.75;;;;;;;12.31;nan;101600.66;4975266;28;20052;-79
2022/04/27 06:59:09;;;;;;;7.32;4.95;;;;;;;12.21;nan;101596.38;4972927;28;20045;-78
2022/04/27 07:01:36;;;;;;;8.10;5.57;;;;;;;12.48;nan;101600.44;4970230;28;20503;-79
2022/04/27 07:04:08;;;;;;;6.72;5.05;;;;;;;12.60;nan;101602.03;4985239;28;20049;-81
2022/04/27 07:06:35;;;;;;;8.77;5.70;;;;;;;12.66;nan;101600.19;4975936;28;20050;-79
2022/04/27 07:09:04;;;;;;;44.55;8.60;;;;;;;12.91;nan;101599.84;4974643;28;20049;-80
2022/04/27 07:11:31;;;;;;;6.35;4.82;;;;;;;13.12;nan;101601.28;4990680;28;20422;-81
2022/04/27 07:13:58;;;;;;;8.80;5.32;;;;;;;13.50;nan;101600.66;4980451;28;20045;-79
2022/04/27 07:16:25;;;;;;;6.35;5.30;;;;;;;13.60;nan;101598.72;4977348;28;20042;-80
2022/04/27 07:18:53;;;;;;;6.78;4.80;;;;;;;13.74;nan;101604.66;4979020;28;20038;-79
2022/04/27 07:21:21;;;;;;;7.35;4.30;;;;;;;13.59;nan;101602.28;4967100;28;20046;-79
2022/04/27 07:23:49;;;;;;;13.10;8.80;;;;;;;13.89;nan;101607.03;4970132;28;20046;-79
2022/04/27 07:26:16;;;;;;;6.43;4.07;;;;;;;13.71;nan;101602.09;4991878;28;20042;-79
2022/04/27 07:28:43;;;;;;;8.63;4.57;;;;;;;13.74;nan;101616.16;4983157;28;20031;-83
2022/04/27 07:31:10;;;;;;;7.60;4.85;;;;;;;13.92;nan;101611.41;4961304;28;20039;-81
2022/04/27 07:33:37;;;;;;;7.20;3.85;;;;;;;13.70;nan;101609.13;4949570;28;20046;-83
2022/04/27 07:36:07;;;;;;;5.80;4.13;;;;;;;13.64;nan;101609.28;4973370;28;20045;-82
2022/04/27 07:38:34;;;;;;;5.82;3.80;;;;;;;13.96;nan;101610.47;4973331;28;20042;-80
2022/04/27 07:41:01;;;;;;;8.57;6.80;;;;;;;14.57;nan;101615.41;4956962;28;20038;-80
2022/04/27 07:43:28;;;;;;;6.15;4.65;;;;;;;14.66;nan;101608.16;4966803;28;20525;-82
2022/04/27 07:45:54;;;;;;;4.50;3.85;;;;;;;15.06;nan;101614.31;4972406;28;20042;-81
2022/04/27 07:48:21;;;;;;;5.65;3.45;;;;;;;14.92;nan;101614.63;4993415;28;20038;-81
2022/04/27 07:50:48;;;;;;;8.20;4.72;;;;;;;14.89;nan;101619.16;4993397;28;20041;-82
2022/04/27 07:53:16;;;;;;;5.65;3.47;;;;;;;14.63;nan;101617.97;4992153;28;20825;-82
2022/04/27 07:55:43;;;;;;;5.13;3.55;;;;;;;14.53;nan;101628.81;4979728;28;20049;-79
2022/04/27 07:58:09;;;;;;;5.63;3.33;;;;;;;14.20;nan;101631.22;4971611;28;20038;-80
2022/04/27 08:00:36;;;;;;;4.93;3.00;;;;;;;14.31;nan;101634.56;4977682;28;20525;-79
2022/04/27 08:03:03;;;;;;;5.47;3.30;;;;;;;14.09;nan;101630.56;4988861;28;20425;-83
2022/04/27 08:05:31;;;;;;;4.95;3.25;;;;;;;14.20;nan;101631.22;4977360;28;20042;-79
2022/04/27 08:07:59;;;;;;;6.93;3.17;;;;;;;14.49;nan;101635.97;4995244;28;20038;-80
2022/04/27 08:10:26;;;;;;;4.75;3.40;;;;;;;14.70;nan;101639.06;4960282;28;20092;-84
2022/04/27 08:12:53;;;;;;;6.45;3.67;;;;;;;14.92;nan;101632.38;4978166;28;20042;-80
2022/04/27 08:15:21;;;;;;;8.13;3.53;;;;;;;15.41;nan;101633.88;4959572;28;20543;-82
2022/04/27 08:18:02;;;;;;;4.88;3.53;;;;;;;15.60;nan;101627.16;4978527;28;20038;-80
2022/04/27 08:23:21;;;;;;;4.65;3.67;;;;;;;15.87;nan;101630.03;4985677;28;20052;-80
2022/04/27 08:25:49;;;;;;;7.60;4.15;;;;;;;15.81;nan;101633.75;4976923;28;20034;-80
2022/04/27 08:28:16;;;;;;;4.40;3.05;;;;;;;15.74;nan;101629.50;4975311;28;20052;-80
2022/04/27 08:30:45;;;;;;;7.03;3.72;;;;;;;15.59;nan;101635.19;4966597;28;20035;-80
2022/04/27 08:33:13;;;;;;;8.32;3.88;;;;;;;15.72;nan;101640.22;4982214;28;20038;-83
2022/04/27 08:35:41;;;;;;;5.00;3.78;;;;;;;15.68;nan;101637.66;4991487;28;20049;-80
2022/04/27 08:38:09;;;;;;;5.07;3.72;;;;;;;15.43;nan;101637.38;4980995;28;20052;-81
2022/04/27 08:40:38;;;;;;;35.50;6.22;;;;;;;15.52;nan;101634.47;4988486;28;20073;-80
2022/04/27 08:43:05;;;;;;;6.60;3.65;;;;;;;15.33;nan;101639.38;4975097;28;20040;-81
2022/04/27 08:45:33;;;;;;;6.22;3.10;;;;;;;15.69;nan;101636.72;4976681;28;20380;-81
2022/04/27 08:48:00;;;;;;;4.25;2.88;;;;;;;15.84;nan;101638.13;4972500;28;20045;-81
2022/04/27 08:50:27;;;;;;;3.80;3.40;;;;;;;15.97;nan;101639.53;4980474;28;21520;-82
2022/04/27 08:52:55;;;;;;;5.57;3.15;;;;;;;16.18;nan;101638.94;4992755;28;20042;-82
2022/04/27 08:55:22;;;;;;;3.13;2.55;;;;;;;16.52;nan;101643.31;4975814;28;20048;-81
2022/04/27 08:57:49;;;;;;;4.63;2.72;;;;;;;16.88;nan;101636.88;4967041;28;20046;-83
2022/04/27 09:00:21;;;;;;;3.47;2.67;;;;;;;16.93;nan;101635.88;4958783;28;20037;-81
2022/04/27 09:02:53;;;;;;;4.75;2.85;;;;;;;17.04;nan;101642.63;4986565;28;20037;-81
2022/04/27 09:05:21;;;;;;;4.30;2.85;;;;;;;16.98;nan;101639.25;4982315;28;20042;-80
2022/04/27 09:07:52;;;;;;;3.67;2.95;;;;;;;17.23;nan;101645.56;4972121;28;20050;-81
2022/04/27 09:10:24;;;;;;;4.53;3.13;;;;;;;17.11;nan;101646.84;4952342;28;20036;-80
2022/04/27 09:12:55;;;;;;;4.60;2.70;;;;;;;16.69;nan;101651.72;4951348;28;20039;-79
2022/04/27 09:15:24;;;;;;;3.30;2.60;;;;;;;16.83;nan;101657.53;4960594;28;20042;-79
2022/04/27 09:20:48;;;;;;;5.22;3.42;;;;;;;16.83;nan;101651.31;4978443;28;20042;-80
2022/04/27 09:23:25;;;;;;;4.72;3.33;;;;;;;16.98;nan;101650.81;4980510;28;20038;-81
2022/04/27 09:25:59;;;;;;;4.25;3.13;;;;;;;17.38;nan;101647.75;4960092;28;20038;-79
2022/04/27 09:28:30;;;;;;;5.85;3.42;;;;;;;17.72;nan;101641.28;4991274;28;20522;-80
2022/04/27 09:31:01;;;;;;;4.40;2.80;;;;;;;18.22;nan;101643.97;4975963;28;20030;-82
2022/04/27 09:33:33;;;;;;;3.38;2.88;;;;;;;18.70;nan;101646.66;4975521;28;20385;-82
2022/04/27 09:36:00;;;;;;;4.68;3.13;;;;;;;18.92;nan;101638.66;4976292;28;20034;-81
2022/04/27 09:38:39;;;;;;;4.95;3.35;;;;;;;18.66;nan;101639.66;4974838;28;20056;-81
2022/04/27 09:41:06;;;;;;;7.05;3.85;;;;;;;18.40;nan;101637.94;4991985;28;20407;-81
2022/04/27 09:43:46;;;;;;;3.92;3.30;;;;;;;18.06;nan;101629.41;4962807;28;20050;-82
2022/04/27 09:46:22;;;;;;;4.03;2.47;;;;;;;17.76;nan;101644.75;4975535;28;20053;-81
2022/04/27 09:49:02;;;;;;;3.85;2.33;;;;;;;17.48;nan;101639.41;4979634;28;20033;-81
2022/04/27 09:51:53;;;;;;;9.07;3.28;;;;;;;17.72;nan;101625.25;4987847;28;20045;-82
2022/04/27 09:54:25;;;;;;;5.15;3.72;;;;;;;17.42;nan;101645.88;4974623;28;20415;-82
2022/04/27 09:56:55;;;;;;;5.13;3.38;;;;;;;17.00;nan;101643.66;4968608;28;20061;-80
2022/04/27 09:59:26;;;;;;;4.63;3.30;;;;;;;16.64;nan;101648.25;4950894;28;20044;-81
2022/04/27 10:01:58;;;;;;;4.40;3.08;;;;;;;16.22;nan;101643.25;4970281;28;20054;-81
2022/04/27 10:04:28;;;;;;;3.80;2.92;;;;;;;15.81;nan;101648.84;4989673;28;20042;-81
2022/04/27 10:07:03;;;;;;;5.97;3.53;;;;;;;16.16;nan;101647.91;4971758;28;20403;-82
2022/04/27 10:09:32;;;;;;;6.88;3.90;;;;;;;15.73;nan;101643.75;4958158;28;20041;-81
2022/04/27 10:12:15;;;;;;;4.38;3.20;;;;;;;16.13;nan;101638.19;4959708;28;20526;-80
2022/04/27 10:14:42;;;;;;;4.25;3.70;;;;;;;15.92;nan;101637.00;4955436;28;20039;-82
2022/04/27 10:17:13;;;;;;;4.55;3.17;;;;;;;15.91;nan;101651.25;4947701;28;20043;-80
2022/04/27 10:19:47;;;;;;;5.00;3.50;;;;;;;15.77;nan;101656.94;4956431;28;20041;-80
2022/04/27 10:22:33;;;;;;;;;;;;;;;15.56;nan;101653.94;4979569;28;20068;-81
2022/04/27 10:25:07;;;;;;;4.47;2.60;;;;;;;15.46;nan;101655.91;4954370;28;19922;-83
2022/04/27 10:27:41;;;;;;;4.15;3.42;;;;;;;15.52;nan;101649.56;4973001;28;20051;-80
2022/04/27 10:30:13;;;;;;;3.88;3.30;;;;;;;15.51;nan;101648.69;4955910;28;20038;-82
2022/04/27 10:32:42;;;;;;;3.08;2.78;;;;;;;15.61;nan;101652.03;4976495;28;20045;-80
2022/04/27 10:35:12;;;;;;;4.20;3.30;;;;;;;16.25;nan;101652.97;4964433;28;20046;-81
2022/04/27 10:37:47;;;;;;;3.40;2.60;;;;;;;16.72;nan;101646.28;4979955;28;20381;-81
2022/04/27 10:40:33;;;;;;;8.95;6.10;;;;;;;17.12;nan;101637.03;4957103;28;20034;-82
2022/04/27 10:43:05;;;;;;;10.30;3.20;;;;;;;17.93;nan;101632.53;4958480;28;20041;-81
2022/04/27 10:45:33;;;;;;;3.63;3.28;;;;;;;18.47;nan;101635.91;4974361;28;20069;-81
2022/04/27 10:48:04;;;;;;;4.05;2.53;;;;;;;18.02;nan;101630.47;4958454;28;20414;-81
2022/04/27 10:50:33;;;;;;;85.40;12.70;;;;;;;17.56;nan;101640.03;4974828;28;20041;-82
2022/04/27 10:53:19;;;;;;;5.40;3.10;;;;;;;16.85;nan;101645.00;4945177;28;20057;-83
2022/04/27 10:55:59;;;;;;;6.63;3.20;;;;;;;16.68;nan;101641.94;4978533;28;20038;-82
2022/04/27 10:58:30;;;;;;;5.20;2.80;;;;;;;16.36;nan;101644.66;4976327;28;20523;-82
2022/04/27 11:01:03;;;;;;;3.30;2.30;;;;;;;16.48;nan;101642.53;4957490;28;20529;-81
2022/04/27 11:03:35;;;;;;;3.55;2.38;;;;;;;17.04;nan;101623.94;4980464;28;20060;-81
2022/04/27 11:06:04;;;;;;;2.88;1.90;;;;;;;17.47;nan;101621.66;4969337;28;20452;-80
2022/04/27 11:08:53;;;;;;;3.92;2.10;;;;;;;17.84;nan;101623.97;4968411;28;20118;-81
2022/04/27 11:11:24;;;;;;;3.35;2.70;;;;;;;17.66;nan;101621.00;4993738;28;20049;-81
2022/04/27 11:13:51;;;;;;;3.40;2.65;;;;;;;17.19;nan;101630.56;4969027;28;20045;-79
2022/04/27 11:16:18;;;;;;;3.40;3.05;;;;;;;16.85;nan;101636.13;4955787;28;20045;-80
2022/04/27 11:18:59;;;;;;;3.25;2.55;;;;;;;16.58;nan;101638.69;4949410;28;20135;-79
2022/04/27 11:21:30;;;;;;;5.30;3.35;;;;;;;16.48;nan;101644.31;4955916;28;20049;-79
2022/04/27 11:24:01;;;;;;;3.05;2.50;;;;;;;17.06;nan;101635.44;4960885;28;20411;-81
2022/04/27 11:26:28;;;;;;;4.75;2.92;;;;;;;17.30;nan;101635.56;4965482;28;20050;-79
2022/04/27 11:28:57;;;;;;;4.82;2.70;;;;;;;17.69;nan;101626.22;4960911;28;20042;-82
2022/04/27 11:31:24;;;;;;;4.43;2.90;;;;;;;18.42;nan;101624.53;4994683;28;20046;-82
2022/04/27 11:33:51;;;;;;;3.05;2.63;;;;;;;18.74;nan;101621.50;4973586;28;20439;-83
2022/04/27 11:36:23;;;;;;;4.50;2.70;;;;;;;19.31;nan;101624.56;4961919;28;20400;-79
2022/04/27 11:38:51;;;;;;;3.22;2.67;;;;;;;19.36;nan;101630.63;4960672;28;20056;-81
2022/04/27 11:41:20;;;;;;;4.85;2.65;;;;;;;19.19;nan;101622.41;4957929;28;20046;-80
2022/04/27 11:43:48;;;;;;;3.35;2.60;;;;;;;18.74;nan;101631.31;4962837;28;21865;-83
2022/04/27 11:46:15;;;;;;;3.35;2.70;;;;;;;18.16;nan;101639.75;4981871;28;20065;-83
2022/04/27 11:48:52;;;;;;;5.88;2.85;;;;;;;17.38;nan;101645.06;4956422;28;20047;-79
2022/04/27 11:51:19;;;;;;;3.85;3.42;;;;;;;17.00;nan;101637.44;4958678;28;20037;-82
2022/04/27 11:53:48;;;;;;;5.70;2.88;;;;;;;17.21;nan;101636.75;4972748;28;20042;-81
2022/04/27 11:56:17;;;;;;;3.72;3.17;;;;;;;17.44;nan;101644.88;4990506;28;20420;-82
2022/04/27 11:58:45;;;;;;;4.57;2.65;;;;;;;17.85;nan;101628.38;4958652;28;20376;-83
2022/04/27 12:01:20;;;;;;;3.75;3.22;;;;;;;18.25;nan;101631.38;4960393;28;20044;-80
2022/04/27 12:03:49;;;;;;;3.95;2.72;;;;;;;18.62;nan;101627.31;4951433;28;20407;-82
2022/04/27 12:06:21;;;;;;;4.22;3.28;;;;;;;17.88;nan;101629.13;4957364;28;20065;-79
2022/04/27 12:08:48;;;;;;;4.65;2.38;;;;;;;17.49;nan;101635.81;4951045;28;20050;-83